Spokane International Airport
KGEG : now visible

Airfield :











YOU CAN JOIN US ON...

 
LOGIN :

Register | Disclaimer

   EN    FR    IT 

 









Legend :    VFR   Marginal VFR   IFR   Intensive IFR   Very Intensive IFR
Visi :
Ceiling :
>= 8 km
>= 3000ft
5 to 8 km
1000 to 3000 ft
1500m to 5 km
500 to 1000 ft
800 to 1500m
200 to 500 ft
< 800m
< 200 ft
Symbols :   Thunderstorms  Fog  Heavy snow  Heavy precipitations  Wind > 20 kt






- Airport Elevation : 2376 ft
- IATA code : GEG


KGEG - Spokane International

CURRENT METAR :
  • 101853Z 30028G38KT 10SM FEW035 SCT070 BKN120 06/M09 A2988 RMK AO2 PK WND 29038/1850 SLP125 VCSH NW-NE T00611089

EXPIRED METARs :
  • 101753Z 26020KT 10SM FEW035 SCT070 BKN100 07/M08 A2987 RMK AO2 PK WND 26030/1740 SLP121 VIRGA SHSN DSNT E W-NW T00721078 10072 20022 50011
  • 101653Z 31019G28KT 10SM FEW025 FEW055 BKN075 04/M07 A2988 RMK AO2 PK WND 27036/1632 SLP125 VIRGA VCSH NW-NE T00441067

TAF KGEG
Valid from the 10 at 18:00 until the 11 at 18:00 UTC


101730Z 1018/1118 28023G40KT P6SM VCSH BKN060
FM102200 27015G24KT P6SM VCSH SCT040 BKN070
FM110200 26011KT P6SM SCT070
FM111300 17006KT P6SM SKC
KZSE FIR / North America



MET'MAP, your aeronautical weather chart ! - Copyright ORBIFLY December 2007 - Disclaimer

ORBIFLY MET'MAP TEAM :

Programming & Development : Alexandra Zaïnal
Concept & original design : Baudouin d'Aumeries
Assistance for programming : Marc-Olivier Méhu
Technical & hardware support : Manuel Goepfert

Contact : metmap@orbifly.com




SOURCES & CREDITS :

   NOAA       Earth
Advisory